Portland, Oregon
Traffic Map
Current Weather Conditions
Portland, Oregon
Scattered Clouds
Scattered Clouds
15°
Feels Like: 15°
Wind Chill: 15° Ceiling: Unl
Heat Index: 15° Visibility: 10mi
Dew Point: Wind: 5mph
Humidity: 36% Direction: 310° (NW)
Pressure: 30.42in Gusts: 0mph
Raw Report DataKPDX 212053Z 31004KT 10SM SCT055 SCT250 15/00 A3042 RMK AO2 SLP298 CCSL N AND S-W T01500000 56009
Traffic Incident Summary
Active as of:
Severity:
Category:
InformationThere was an issue retrieving the traffic information for this location. Please try a different location or try again shortly.
Advertisements